createdAt,value
2019-03-16T00:00:45.378Z,12.00
2019-03-16T00:05:46.972Z,10.47
2019-03-16T00:10:48.682Z,11.90
2019-03-16T00:15:50.272Z,10.90
2019-03-16T00:20:51.970Z,13.67
2019-03-16T00:25:53.739Z,11.50
2019-03-16T00:30:55.473Z,11.40
2019-03-16T00:35:57.714Z,7.43
2019-03-16T00:40:59.708Z,5.40
2019-03-16T00:46:01.605Z,5.70
2019-03-16T00:51:03.364Z,6.80
2019-03-16T00:56:05.184Z,7.80
2019-03-16T01:01:06.886Z,7.00
2019-03-16T01:06:09.383Z,6.80
2019-03-16T01:11:11.222Z,5.00
2019-03-16T01:16:12.914Z,4.63
2019-03-16T01:21:14.588Z,4.77
2019-03-16T01:26:16.273Z,3.77
2019-03-16T01:31:17.967Z,3.90
2019-03-16T01:36:19.651Z,6.70
2019-03-16T01:41:21.660Z,5.30
2019-03-16T01:46:23.499Z,9.60
2019-03-16T01:51:25.270Z,9.30
2019-03-16T01:56:27.164Z,5.70
2019-03-16T02:01:29.355Z,7.50
2019-03-16T02:06:31.082Z,6.77
2019-03-16T02:11:33.176Z,5.20
2019-03-16T02:16:34.860Z,5.83
2019-03-16T02:21:36.566Z,5.30
2019-03-16T02:26:38.261Z,8.73
2019-03-16T02:31:40.559Z,7.43
2019-03-16T02:36:50.918Z,6.37
2019-03-16T02:41:53.151Z,8.10
2019-03-16T02:46:54.927Z,9.70
2019-03-16T02:51:57.052Z,9.53
2019-03-16T02:56:58.799Z,7.87
2019-03-16T03:02:00.866Z,9.20
2019-03-16T03:07:02.662Z,14.13
2019-03-16T03:12:04.350Z,13.90
2019-03-16T03:17:05.978Z,12.40
2019-03-16T03:22:07.748Z,12.20
2019-03-16T03:27:09.760Z,8.60
2019-03-16T03:32:11.433Z,10.17
2019-03-16T03:37:13.136Z,13.30
2019-03-16T03:42:14.803Z,14.80
2019-03-16T03:47:16.509Z,12.30
2019-03-16T03:52:18.219Z,10.80
2019-03-16T03:57:20.052Z,14.17
2019-03-16T04:02:21.645Z,11.73
2019-03-16T04:07:23.298Z,12.30
2019-03-16T04:12:25.009Z,11.73
2019-03-16T04:17:26.894Z,10.80
2019-03-16T04:22:28.670Z,10.03
2019-03-16T04:27:30.326Z,12.53
2019-03-16T04:32:32.067Z,13.23
2019-03-16T04:37:34.003Z,13.43
2019-03-16T04:42:35.970Z,13.23
2019-03-16T04:47:37.742Z,14.27
2019-03-16T04:52:39.441Z,10.90
2019-03-16T04:57:41.133Z,10.57
2019-03-16T05:02:42.749Z,13.60
2019-03-16T05:07:44.442Z,12.03
2019-03-16T05:12:46.452Z,10.70
2019-03-16T05:17:48.057Z,13.33
2019-03-16T05:22:50.040Z,12.73
2019-03-16T05:27:51.735Z,11.47
2019-03-16T05:32:53.445Z,7.90
2019-03-16T05:37:55.239Z,11.50
2019-03-16T05:42:57.508Z,11.80
2019-03-16T05:47:59.254Z,11.87
2019-03-16T05:53:00.947Z,11.77
2019-03-16T05:58:02.633Z,14.60
2019-03-16T06:03:04.221Z,10.27
2019-03-16T06:08:05.933Z,9.80
2019-03-16T06:13:07.587Z,11.30
2019-03-16T06:18:09.435Z,10.90
2019-03-16T06:23:11.120Z,9.50
2019-03-16T06:28:13.017Z,13.00
2019-03-16T06:33:15.225Z,10.10
2019-03-16T06:38:16.922Z,12.90
2019-03-16T06:43:19.240Z,10.83
2019-03-16T06:48:21.447Z,10.57
2019-03-16T06:53:23.476Z,7.90
2019-03-16T06:58:25.143Z,8.70
2019-03-16T07:03:26.843Z,9.60
2019-03-16T07:08:28.536Z,9.53
2019-03-16T07:13:30.143Z,10.80
2019-03-16T07:18:31.840Z,8.50
2019-03-16T07:23:33.780Z,11.17
2019-03-16T07:28:35.645Z,10.57
2019-03-16T07:33:37.443Z,10.70
2019-03-16T07:38:39.645Z,10.10
2019-03-16T07:43:42.652Z,10.43
2019-03-16T07:48:44.475Z,8.27
2019-03-16T07:53:46.173Z,11.30
2019-03-16T07:58:47.947Z,10.63
2019-03-16T08:03:49.764Z,11.17
2019-03-16T08:08:51.860Z,9.10
2019-03-16T08:13:53.487Z,9.93
2019-03-16T08:18:55.198Z,10.50
2019-03-16T08:23:56.868Z,9.63
2019-03-16T08:28:59.324Z,9.70
2019-03-16T08:34:01.183Z,13.37
2019-03-16T08:39:05.401Z,8.90
2019-03-16T08:44:07.486Z,10.00
2019-03-16T08:49:09.265Z,7.60
2019-03-16T08:54:10.943Z,6.37
2019-03-16T08:59:12.661Z,9.07
2019-03-16T09:04:14.356Z,6.10
2019-03-16T09:09:16.441Z,9.50
2019-03-16T09:14:18.226Z,6.63
2019-03-16T09:19:19.891Z,7.23
2019-03-16T09:24:21.480Z,9.30
2019-03-16T09:29:23.179Z,8.43
2019-03-16T09:34:24.767Z,8.60
2019-03-16T09:39:26.850Z,9.63
2019-03-16T09:44:29.096Z,9.70
2019-03-16T09:49:30.819Z,8.17
2019-03-16T09:54:32.438Z,9.50
2019-03-16T09:59:34.227Z,5.93
2019-03-16T10:04:35.953Z,7.90
2019-03-16T10:09:38.465Z,6.30
2019-03-16T10:14:40.103Z,6.80
2019-03-16T10:19:41.753Z,8.17
2019-03-16T10:24:48.650Z,6.20
2019-03-16T10:29:50.685Z,6.73
2019-03-16T10:34:52.349Z,6.77
2019-03-16T10:39:54.503Z,8.00
2019-03-16T10:44:56.698Z,6.67
2019-03-16T10:49:58.423Z,5.80
2019-03-16T10:55:00.353Z,5.40
2019-03-16T11:00:04.070Z,5.87
2019-03-16T11:05:05.723Z,7.93
2019-03-16T11:10:11.546Z,4.33
2019-03-16T11:15:13.381Z,5.30
2019-03-16T11:20:16.425Z,3.37
2019-03-16T11:25:18.944Z,2.83
2019-03-16T11:30:21.058Z,2.33
2019-03-16T11:35:22.764Z,2.63
2019-03-16T11:40:24.537Z,2.60
2019-03-16T11:45:26.588Z,2.77
2019-03-16T11:50:28.332Z,2.50
2019-03-16T11:55:30.382Z,3.13
2019-03-16T12:00:32.111Z,3.67
2019-03-16T12:05:33.967Z,2.90
2019-03-16T12:10:35.584Z,5.30
2019-03-16T12:15:37.272Z,3.60
2019-03-16T12:20:38.985Z,2.43
2019-03-16T12:25:40.995Z,3.93
2019-03-16T12:30:43.243Z,2.20
2019-03-16T12:35:44.891Z,1.37
2019-03-16T12:40:46.626Z,4.53
2019-03-16T12:45:49.660Z,3.20
2019-03-16T12:50:54.318Z,2.83
2019-03-16T12:55:55.533Z,1.87
2019-03-16T13:00:57.357Z,2.83
2019-03-16T13:05:58.981Z,2.07
2019-03-16T13:11:01.268Z,3.30
2019-03-16T13:16:03.380Z,2.63
2019-03-16T13:21:05.033Z,2.20
2019-03-16T13:26:07.303Z,2.53
2019-03-16T13:31:09.113Z,1.80
2019-03-16T13:36:10.756Z,2.20
2019-03-16T13:41:12.514Z,1.43
2019-03-16T13:46:14.636Z,1.27
2019-03-16T13:51:16.747Z,2.33
2019-03-16T13:56:18.860Z,2.27
2019-03-16T14:01:20.880Z,1.90
2019-03-16T14:06:22.581Z,2.30
2019-03-16T14:11:24.286Z,1.27
2019-03-16T14:16:26.019Z,1.27
2019-03-16T14:21:27.915Z,1.80
2019-03-16T14:26:30.188Z,1.10
2019-03-16T14:31:32.473Z,1.00
2019-03-16T14:36:34.194Z,1.20
2019-03-16T14:41:36.083Z,1.40
2019-03-16T14:46:41.732Z,1.47
2019-03-16T14:51:43.919Z,1.90
2019-03-16T14:56:53.659Z,1.10
2019-03-16T15:01:56.540Z,1.70
2019-03-16T15:06:58.154Z,1.97
2019-03-16T15:11:59.997Z,1.50
2019-03-16T15:17:02.049Z,1.40
2019-03-16T15:22:13.624Z,2.07
2019-03-16T15:27:24.443Z,1.90
2019-03-16T15:32:26.816Z,1.20
2019-03-16T15:37:29.442Z,0.70
2019-03-16T15:42:31.268Z,1.10
2019-03-16T15:47:33.475Z,2.13
2019-03-16T15:52:38.541Z,1.50
2019-03-16T15:57:42.731Z,1.60
2019-03-16T16:02:46.598Z,1.73
2019-03-16T16:07:49.880Z,1.60
2019-03-16T16:12:52.037Z,1.30
2019-03-16T16:17:53.785Z,2.43
2019-03-16T16:22:56.584Z,1.90
2019-03-16T16:27:59.527Z,1.90
2019-03-16T16:33:02.379Z,1.53
2019-03-16T16:38:04.666Z,1.97
2019-03-16T16:43:11.455Z,2.80
2019-03-16T16:48:14.091Z,3.10
2019-03-16T16:53:15.973Z,5.80
2019-03-16T16:58:18.571Z,7.10
2019-03-16T17:03:21.336Z,6.43
2019-03-16T17:08:42.973Z,7.60
2019-03-16T17:13:44.826Z,7.17
2019-03-16T17:18:49.453Z,6.87
2019-03-16T17:23:52.211Z,7.43
2019-03-16T17:28:55.202Z,9.03
2019-03-16T17:33:57.218Z,7.73
2019-03-16T17:38:59.267Z,7.13
2019-03-16T17:44:01.246Z,7.13
2019-03-16T17:49:03.923Z,7.20
2019-03-16T17:54:06.368Z,8.40
2019-03-16T17:59:08.883Z,5.57
2019-03-16T18:04:11.299Z,7.57
2019-03-16T18:09:13.957Z,9.47
2019-03-16T18:14:18.007Z,6.53
2019-03-16T18:19:21.458Z,6.80
2019-03-16T18:24:23.666Z,9.00
2019-03-16T18:29:25.837Z,7.60
2019-03-16T18:34:28.546Z,9.60
2019-03-16T18:39:31.837Z,8.47
2019-03-16T18:44:35.873Z,8.60
2019-03-16T18:49:39.616Z,10.80
2019-03-16T18:54:45.012Z,10.10
2019-03-16T18:59:47.117Z,8.90
2019-03-16T19:04:51.801Z,9.83
2019-03-16T19:09:54.838Z,10.67
2019-03-16T19:14:58.025Z,11.23
2019-03-16T19:20:00.376Z,12.80
2019-03-16T19:25:06.659Z,11.70
2019-03-16T19:30:15.650Z,10.03
2019-03-16T19:35:18.284Z,9.63
2019-03-16T19:40:22.445Z,10.80
2019-03-16T19:45:24.498Z,8.30
2019-03-16T19:50:26.872Z,11.17
2019-03-16T19:55:29.703Z,6.70
2019-03-16T20:00:34.558Z,12.50
2019-03-16T20:05:43.553Z,12.17
2019-03-16T20:10:46.146Z,10.53
2019-03-16T20:15:49.222Z,10.20
2019-03-16T20:20:52.549Z,12.57
2019-03-16T20:25:54.755Z,13.27
2019-03-16T20:30:57.879Z,13.10
2019-03-16T20:36:00.004Z,13.73
2019-03-16T20:41:01.969Z,10.67
2019-03-16T20:46:03.891Z,14.30
2019-03-16T20:51:06.343Z,16.80
2019-03-16T20:56:09.066Z,15.80
2019-03-16T21:01:11.172Z,17.70
2019-03-16T21:06:15.075Z,22.17
2019-03-16T21:11:16.785Z,16.20
2019-03-16T21:16:18.670Z,15.13
2019-03-16T21:21:20.898Z,16.53
2019-03-16T21:26:23.042Z,14.40
2019-03-16T21:31:24.898Z,16.70
2019-03-16T21:36:26.690Z,15.97
2019-03-16T21:41:28.503Z,12.37
2019-03-16T21:46:32.955Z,12.83
2019-03-16T21:51:37.836Z,11.70
2019-03-16T21:56:39.611Z,13.73
2019-03-16T22:01:41.299Z,11.43
2019-03-16T22:06:43.214Z,15.87
2019-03-16T22:11:45.016Z,10.53
2019-03-16T22:16:47.619Z,11.53
2019-03-16T22:21:49.425Z,12.07
2019-03-16T22:26:51.226Z,10.93
2019-03-16T22:31:52.933Z,13.30
2019-03-16T22:36:54.728Z,11.07
2019-03-16T22:41:56.533Z,10.20
2019-03-16T22:46:58.332Z,11.50
2019-03-16T22:52:00.442Z,9.43
2019-03-16T22:57:02.444Z,10.33
2019-03-16T23:02:04.808Z,11.00
2019-03-16T23:07:06.567Z,5.10
2019-03-16T23:12:08.222Z,9.10
2019-03-16T23:17:09.904Z,10.23
2019-03-16T23:22:11.500Z,10.03
2019-03-16T23:27:13.163Z,10.10
2019-03-16T23:32:14.818Z,8.10
2019-03-16T23:37:16.564Z,10.43
2019-03-16T23:42:18.316Z,9.70
2019-03-16T23:47:20.576Z,9.50
2019-03-16T23:52:22.752Z,8.97
2019-03-16T23:57:24.489Z,6.90
